Henderson, Maryland
Current Conditions -  °F | °C
As of 10:58 PM on Tuesday 27 Jan 2015 (Local Time) from KDOV Reporting Station
Clear Clear  
Wind Chill: 14°   Ceiling: Unl
Heat Index: 28°   Visibility: 10mi
Dew Point:   Wind: 21mph
Humidity: 43%   Direction: 320°NW
Pressure: 29.88"   Gusts: NA
Location:  39.07°N, 75.77°W
Report Text: KDOV 280358Z AUTO 32018KT 10SM CLR M02/M13 A2988 RMK AO2 SLP122 T10241135 $
Loading
Personal Weather Stations






























Interactive Weather Map New forecast layout! Learn more

10-Day Weather Forecast

Advertisements
Track Severe Weather on mobile